Wauneta, NE (69045)

9:19 PM MST on February 05, 2016 (GMT -0700)
APRSWXNET | | Change Station
CLOSE
Current Station
Personal Weather Station
Location: Stratton, NE
Elevation: 3190 ft
Nearby Weather Stations

Elev 3190 ft 40.26 °N, 101.28 °W | Updated 24 minutes ago

Clear
Clear
22 °F
Feels Like 15 °F
N
5
Wind Variable Wind from WNW
Gusts 8.0 mph

Today
High -- | Low -- °F
--% Chance of Precip.
Yesterday
High -- | Low -- °F
Precip. -- in
Pressure 30.37 in
Visibility 10.0 miles
Clouds Clear
Windchill 15 °F
Dew Point 18 °F
Humidity 83%
Rainfall in
Snow Depth Not available.
6:51 AM 5:08 PM
Waning Crescent, 7% visible
METAR KIML 060353Z AUTO 30014KT 10SM CLR M04/M09 A3026 RMK AO2 SLP283 T10391094
Pressure 30.37 in
Visibility 10.0 miles
Clouds Clear
Windchill 15 °F
Dew Point 18 °F
Humidity 83%
Rainfall in
Snow Depth Not available.
6:51 AM 5:08 PM
Waning Crescent, 7% visible
METAR KIML 060353Z AUTO 30014KT 10SM CLR M04/M09 A3026 RMK AO2 SLP283 T10391094

10-Day Weather Forecast

Almanac

Astronomy

Feb. 05, 2016 Rise Set
Actual Time
Civil Twilight
Nautical Twilight
Astronomical Twilight
Moon
Length of Visible Light
Length of Day
Tomorrow will be .
, % of the Moon is Illuminated

Today's Extremes

State Highs State Lows

Community

WunderPhotos

Upload Photos

1,890,917 photos uploaded!

WunderBlog® & News

Nearby

Air Quality

  Air Quality AQ Index Pollutant
Not available.

Snow Depth

Station Depth Elevation

Earthquake Activity

City Distance Mag. Time & Date
Minimum magnitude displayed is 2.5.

Coastal Water Temperatures

Place Temperature

Stations

Nearby Weather Stations

Station Location Temp. Windchill Dew Point Humidity Wind Precip. Elev Updated Type
                   

Watches & Warnings

There are currently no watches in effect.